Time;durP1;ratioP1;P1;durP2;ratioP2;P2;SDS_P1;SDS_P2;PMS_P1;PMS_P2;Temp;Humidity;BMP_temperature;BMP_pressure;BME280_temperature;BME280_humidity;BME280_pressure;Samples;Min_cycle;Max_cycle;Signal;HPM_P1;HPM_P2
2023/10/09 00:01:26;;;;;;;13.20;7.95;;;18.20;66.20;19.90;101831.00;;;;5069070;28;20223;-76
2023/10/09 00:03:55;;;;;;;14.32;8.27;;;18.20;66.20;19.80;101829.00;;;;5068243;28;20744;-76
2023/10/09 00:06:37;;;;;;;13.80;7.53;;;18.20;66.20;19.80;101823.00;;;;5075482;28;20582;-76
2023/10/09 00:09:16;;;;;;;13.07;7.32;;;18.10;66.10;19.80;101827.00;;;;5077696;28;20216;-76
2023/10/09 00:11:44;;;;;;;15.10;7.43;;;18.10;66.10;19.80;101830.00;;;;5070440;28;20230;-76
2023/10/09 00:14:12;;;;;;;11.73;7.07;;;18.10;66.10;19.80;101828.00;;;;5070371;28;20206;-76
2023/10/09 00:16:46;;;;;;;11.88;7.93;;;18.10;66.00;19.80;101832.00;;;;5067400;28;20754;-76
2023/10/09 00:19:17;;;;;;;12.75;6.95;;;18.10;66.00;19.80;101818.00;;;;5069611;28;20210;-76
2023/10/09 00:21:46;;;;;;;11.52;7.68;;;18.10;66.00;19.70;101817.00;;;;5075265;28;20208;-76
2023/10/09 00:24:23;;;;;;;12.30;8.32;;;18.10;66.00;19.70;101808.00;;;;5078902;28;20229;-77
2023/10/09 00:26:51;;;;;;;13.27;8.15;;;18.10;66.10;19.70;101820.00;;;;5086729;28;20255;-76
2023/10/09 00:29:22;;;;;;;12.85;7.47;;;18.00;66.00;19.70;101824.00;;;;5086024;28;20196;-76
2023/10/09 00:31:55;;;;;;;14.57;8.52;;;18.00;66.00;19.70;101829.00;;;;5087682;28;20205;-76
2023/10/09 00:34:26;;;;;;;12.25;7.82;;;18.00;66.10;19.70;101824.00;;;;5069562;28;20307;-76
2023/10/09 00:36:55;;;;;;;12.57;8.23;;;18.00;66.10;19.70;101826.00;;;;5083095;28;20201;-76
2023/10/09 00:42:06;;;;;;;13.02;7.68;;;18.00;66.20;19.70;101825.00;;;;5077146;28;20195;-77
2023/10/09 00:44:38;;;;;;;14.30;8.57;;;17.90;66.10;19.70;101832.00;;;;5070521;28;20313;-77
2023/10/09 00:47:20;;;;;;;17.00;8.90;;;17.90;66.10;19.60;101831.00;;;;5072801;28;20213;-77
2023/10/09 00:49:50;;;;;;;15.23;9.30;;;17.90;66.20;19.60;101838.00;;;;5089120;28;20271;-76
2023/10/09 00:52:29;;;;;;;12.63;8.05;;;17.90;66.30;19.70;101825.00;;;;5086996;28;20194;-77
2023/10/09 00:55:00;;;;;;;11.88;8.15;;;17.90;66.30;19.70;101827.00;;;;5068613;28;20187;-76
2023/10/09 00:57:31;;;;;;;12.90;8.43;;;17.90;66.40;19.70;101815.00;;;;5068542;28;20195;-76
2023/10/09 01:00:00;;;;;;;15.80;8.93;;;17.90;66.50;19.70;101818.00;;;;5068070;28;20219;-76
2023/10/09 01:02:36;;;;;;;10.73;7.53;;;17.90;66.50;19.70;101822.00;;;;5088879;28;20261;-76
2023/10/09 01:05:19;;;;;;;12.85;8.70;;;18.00;66.50;19.70;101815.00;;;;5070310;28;20221;-76
2023/10/09 01:07:58;;;;;;;11.20;7.97;;;17.90;66.50;19.70;101808.00;;;;5068044;28;20295;-76
2023/10/09 01:10:33;;;;;;;14.68;8.68;;;17.90;66.50;19.70;101812.00;;;;5071470;28;20198;-76
2023/10/09 01:12:59;;;;;;;12.52;8.85;;;18.00;66.60;19.70;101799.00;;;;5067956;28;20221;-76
2023/10/09 01:15:43;;;;;;;13.68;7.90;;;17.90;66.60;19.70;101806.00;;;;5069011;28;20696;-76
2023/10/09 01:18:12;;;;;;;11.82;7.80;;;18.00;66.60;19.70;101808.00;;;;5068754;28;20746;-76
2023/10/09 01:20:45;;;;;;;13.35;8.57;;;18.00;66.60;19.70;101805.00;;;;5068829;28;20209;-76
2023/10/09 01:23:13;;;;;;;12.55;7.95;;;18.00;66.60;19.70;101802.00;;;;5086749;28;20225;-76
2023/10/09 01:25:45;;;;;;;10.48;7.55;;;18.00;66.70;19.70;101795.00;;;;5078639;28;20226;-76
2023/10/09 01:28:15;;;;;;;11.77;8.10;;;18.00;66.70;19.70;101792.00;;;;5072687;28;20217;-76
2023/10/09 01:30:44;;;;;;;14.35;8.35;;;18.00;66.70;19.70;101789.00;;;;5068693;28;20286;-76
2023/10/09 01:33:21;;;;;;;12.30;8.98;;;18.00;66.70;19.80;101785.00;;;;5067347;28;20222;-76
2023/10/09 01:35:52;;;;;;;14.00;8.73;;;18.10;66.80;19.80;101788.00;;;;5076834;28;20694;-76
2023/10/09 01:38:30;;;;;;;14.55;9.18;;;18.10;66.80;19.80;101785.00;;;;5083627;28;20687;-76
2023/10/09 01:41:06;;;;;;;12.45;8.63;;;18.10;66.80;19.80;101789.00;;;;5077771;28;20596;-76
2023/10/09 01:43:34;;;;;;;12.63;8.32;;;18.10;66.80;19.80;101783.00;;;;5072592;28;20237;-76
2023/10/09 01:46:03;;;;;;;13.68;8.10;;;18.10;66.80;19.80;101781.00;;;;5068452;28;20222;-76
2023/10/09 01:48:35;;;;;;;16.60;8.52;;;18.10;66.80;19.80;101772.00;;;;5070147;28;20208;-76
2023/10/09 01:51:06;;;;;;;13.40;8.68;;;18.10;66.80;19.80;101772.00;;;;5091253;28;20194;-76
2023/10/09 01:53:38;;;;;;;14.93;9.35;;;18.20;67.00;19.80;101766.00;;;;5089367;28;20195;-76
2023/10/09 01:56:14;;;;;;;15.13;9.13;;;18.10;67.00;19.80;101778.00;;;;5086379;28;20217;-76
2023/10/09 01:58:46;;;;;;;12.25;8.45;;;18.20;67.10;19.90;101777.00;;;;5090581;28;20193;-76
2023/10/09 02:01:15;;;;;;;12.82;8.57;;;18.20;67.00;19.90;101774.00;;;;5071756;28;20234;-77
2023/10/09 02:03:43;;;;;;;12.90;9.35;;;18.20;67.00;19.90;101772.00;;;;5086293;28;20312;-76
2023/10/09 02:06:26;;;;;;;11.98;8.43;;;18.20;67.00;19.90;101765.00;;;;5086703;28;20575;-76
2023/10/09 02:08:59;;;;;;;14.38;8.38;;;18.20;67.70;19.90;101763.00;;;;5078123;28;20195;-76
2023/10/09 02:11:39;;;;;;;12.25;8.80;;;18.20;67.00;19.90;101760.00;;;;5071388;28;20564;-76
2023/10/09 02:14:18;;;;;;;14.05;9.13;;;18.20;67.00;19.90;101760.00;;;;5070978;28;20579;-76
2023/10/09 02:17:02;;;;;;;12.77;8.45;;;18.30;67.00;20.00;101760.00;;;;5073235;28;20190;-76
2023/10/09 02:19:34;;;;;;;13.85;9.45;;;18.30;67.00;19.90;101761.00;;;;5090250;28;20770;-77
2023/10/09 02:22:12;;;;;;;11.68;7.88;;;18.30;66.90;20.00;101759.00;;;;5089942;28;20206;-76
2023/10/09 02:24:50;;;;;;;11.70;7.93;;;18.30;66.90;20.00;101758.00;;;;5073727;28;20512;-76
2023/10/09 02:27:40;;;;;;;14.30;9.10;;;18.30;67.00;20.00;101753.00;;;;5081255;28;20198;-76
2023/10/09 02:32:53;;;;;;;12.98;8.70;;;18.30;66.90;20.00;101745.00;;;;5088450;28;20580;-76
2023/10/09 02:35:38;;;;;;;11.82;8.75;;;18.30;66.90;20.00;101743.00;;;;5070770;28;20231;-76
2023/10/09 02:38:11;;;;;;;14.77;8.52;;;18.30;66.90;20.00;101735.00;;;;5087852;28;20201;-77
2023/10/09 02:41:00;;;;;;;13.82;8.63;;;18.30;66.90;20.00;101735.00;;;;5089191;28;20688;-76
2023/10/09 02:43:34;;;;;;;10.60;8.02;;;18.30;66.90;20.00;101730.00;;;;5089201;28;20644;-76
2023/10/09 02:46:13;;;;;;;12.50;8.75;;;18.30;66.90;20.00;101730.00;;;;5073348;28;20734;-76
2023/10/09 02:48:45;;;;;;;11.55;8.05;;;18.30;66.90;20.00;101734.00;;;;5070587;28;20191;-76
2023/10/09 02:51:21;;;;;;;13.52;8.18;;;18.30;66.90;20.00;101727.00;;;;5071260;28;20227;-76
2023/10/09 02:53:49;;;;;;;13.88;8.88;;;18.30;66.90;20.00;101722.00;;;;5081316;28;20225;-76
2023/10/09 02:56:23;;;;;;;12.75;8.55;;;18.30;66.90;20.00;101720.00;;;;5082226;28;20207;-76
2023/10/09 02:58:51;;;;;;;13.10;9.23;;;18.40;67.00;20.10;101724.00;;;;5068204;28;20244;-76
2023/10/09 03:01:18;;;;;;;11.32;7.93;;;18.30;66.90;20.00;101727.00;;;;5070739;28;20230;-76
2023/10/09 03:03:45;;;;;;;12.68;8.65;;;18.30;67.00;20.10;101721.00;;;;5078444;28;20214;-76
2023/10/09 03:06:12;;;;;;;11.00;8.45;;;18.30;67.00;20.10;101712.00;;;;5082600;28;20203;-76
2023/10/09 03:08:40;;;;;;;12.07;8.23;;;18.30;67.00;20.10;101706.00;;;;5073914;28;20199;-76
2023/10/09 03:11:13;;;;;;;12.23;7.88;;;18.30;67.10;20.10;101706.00;;;;5070173;28;20202;-76
2023/10/09 03:13:44;;;;;;;13.65;8.25;;;18.40;67.10;20.00;101705.00;;;;5074473;28;20213;-76
2023/10/09 03:16:19;;;;;;;11.05;7.85;;;18.40;67.20;20.10;101713.00;;;;5084876;28;20235;-76
2023/10/09 03:18:47;;;;;;;12.30;8.75;;;18.40;67.10;20.10;101701.00;;;;5068559;28;20209;-76
2023/10/09 03:21:16;;;;;;;15.32;8.32;;;18.40;67.20;20.00;101694.00;;;;5072064;28;20202;-76
2023/10/09 03:23:44;;;;;;;9.73;7.47;;;18.40;67.20;20.10;101692.00;;;;5069704;28;20288;-76
2023/10/09 03:26:12;;;;;;;11.23;7.93;;;18.40;67.20;20.10;101695.00;;;;5077749;28;20683;-76
2023/10/09 03:28:38;;;;;;;12.40;7.50;;;18.40;68.00;20.10;101695.00;;;;5088997;28;20281;-77
2023/10/09 03:31:07;;;;;;;9.10;7.63;;;18.40;67.50;20.10;101692.00;;;;5089761;28;20194;-76
2023/10/09 03:33:34;;;;;;;10.65;6.43;;;18.40;67.80;20.10;101688.00;;;;5086871;28;20948;-76
2023/10/09 03:36:01;;;;;;;9.65;7.13;;;18.40;68.10;20.10;101688.00;;;;5084963;28;20195;-76
2023/10/09 03:38:34;;;;;;;10.07;7.22;;;18.40;68.20;20.20;101690.00;;;;5069397;28;20203;-76
2023/10/09 03:41:05;;;;;;;12.85;7.07;;;18.50;68.30;20.20;101673.00;;;;5069220;28;21216;-76
2023/10/09 03:43:37;;;;;;;11.50;7.93;;;18.50;68.40;20.20;101680.00;;;;5068804;28;20225;-77
2023/10/09 03:46:13;;;;;;;10.38;6.93;;;18.50;68.50;20.30;101685.00;;;;5070333;28;20206;-77
2023/10/09 03:48:43;;;;;;;9.48;6.75;;;18.60;68.60;20.30;101686.00;;;;5082066;28;20281;-76
2023/10/09 03:51:12;;;;;;;10.85;6.57;;;18.60;68.70;20.30;101689.00;;;;5082085;28;20206;-77
2023/10/09 03:53:40;;;;;;;10.02;6.65;;;18.70;69.00;20.40;101717.00;;;;5084544;28;20203;-77
2023/10/09 03:56:12;;;;;;;9.98;6.65;;;18.70;69.10;20.40;101742.00;;;;5068490;28;20289;-76
2023/10/09 03:58:42;;;;;;;10.38;7.78;;;18.80;69.30;20.50;101751.00;;;;5072053;28;20441;-77
2023/10/09 04:01:17;;;;;;;10.68;7.35;;;18.80;69.40;20.50;101757.00;;;;5071589;28;20230;-76
2023/10/09 04:03:45;;;;;;;9.50;6.70;;;18.90;69.50;20.60;101738.00;;;;5083298;28;20657;-77
2023/10/09 04:06:12;;;;;;;11.15;7.15;;;19.00;69.50;20.60;101751.00;;;;5081729;28;20255;-76
2023/10/09 04:08:47;;;;;;;13.05;7.78;;;19.00;69.40;20.60;101740.00;;;;5086790;28;20205;-77
2023/10/09 04:11:17;;;;;;;12.30;7.47;;;19.00;69.40;20.70;101736.00;;;;5078029;28;20292;-77
2023/10/09 04:13:46;;;;;;;8.32;6.22;;;19.10;69.40;20.70;101734.00;;;;5071441;28;20190;-77
2023/10/09 04:16:33;;;;;;;22.25;7.22;;;19.10;69.40;20.70;101737.00;;;;5074222;28;20684;-76
2023/10/09 04:19:06;;;;;;;8.18;6.05;;;19.20;69.40;20.80;101728.00;;;;5072254;28;20199;-77
2023/10/09 04:21:35;;;;;;;10.90;6.72;;;19.20;69.30;20.80;101731.00;;;;5069937;28;20191;-77
2023/10/09 04:26:48;;;;;;;7.85;5.68;;;19.30;69.20;20.90;101732.00;;;;5086645;28;20216;-76
2023/10/09 04:29:23;;;;;;;9.75;6.93;;;19.30;69.00;20.90;101729.00;;;;5081803;28;20198;-76
2023/10/09 04:31:53;;;;;;;9.55;6.60;;;19.30;69.10;20.90;101726.00;;;;5076746;28;20661;-76
2023/10/09 04:34:23;;;;;;;10.15;6.70;;;19.30;69.10;20.90;101722.00;;;;5070665;28;20309;-76
2023/10/09 04:36:51;;;;;;;9.30;7.07;;;19.40;69.00;21.00;101719.00;;;;5073502;28;20190;-76
2023/10/09 04:42:26;;;;;;;9.57;6.57;;;19.40;69.00;21.00;101697.00;;;;5062828;28;20264;-76
2023/10/09 04:47:49;;;;;;;9.82;6.18;;;19.50;69.20;21.00;101718.00;;;;5085441;28;20343;-76
2023/10/09 04:53:22;;;;;;;7.18;5.43;;;19.50;69.20;21.10;101705.00;;;;5084315;28;20202;-76
2023/10/09 04:55:53;;;;;;;10.05;6.18;;;19.50;69.20;21.10;101703.00;;;;5067005;28;20281;-76
2023/10/09 04:58:25;;;;;;;15.95;11.88;;;19.60;69.30;21.20;101706.00;;;;5067618;28;20531;-76
2023/10/09 05:01:13;;;;;;;12.15;8.40;;;19.50;71.00;21.30;101716.00;;;;5074256;28;20230;-76
2023/10/09 05:03:45;;;;;;;12.18;8.13;;;19.50;70.70;21.30;101718.00;;;;5070259;28;20198;-76
2023/10/09 05:06:42;;;;;;;12.10;6.90;;;19.60;70.30;21.30;101719.00;;;;5077887;28;20611;-76
2023/10/09 05:09:12;;;;;;;11.20;7.22;;;19.70;70.00;21.30;101731.00;;;;5088219;28;20743;-76
2023/10/09 05:12:09;;;;;;;13.65;6.82;;;19.70;69.70;21.40;101726.00;;;;5087435;28;20281;-76
2023/10/09 05:14:38;;;;;;;11.57;7.63;;;19.80;69.60;21.40;101719.00;;;;5087364;28;20239;-76
2023/10/09 05:17:15;;;;;;;11.75;8.30;;;19.80;69.50;21.40;101719.00;;;;5069226;28;20565;-76
2023/10/09 05:19:54;;;;;;;8.88;7.25;;;19.90;69.60;21.40;101719.00;;;;5078453;28;20201;-76
2023/10/09 05:22:36;;;;;;;13.23;7.72;;;19.90;69.50;21.40;101720.00;;;;5086610;28;20279;-76
2023/10/09 05:25:14;;;;;;;8.02;6.10;;;19.90;69.50;21.40;101723.00;;;;5072818;28;20217;-76
2023/10/09 05:27:51;;;;;;;7.82;5.90;;;19.90;69.50;21.50;101729.00;;;;5067901;28;20412;-76
2023/10/09 05:30:27;;;;;;;7.88;5.68;;;19.90;69.40;21.50;101735.00;;;;5068445;28;20608;-76
2023/10/09 05:32:58;;;;;;;26.45;5.97;;;19.90;69.50;21.50;101750.00;;;;5077552;28;20202;-76
2023/10/09 05:35:39;;;;;;;8.25;6.03;;;19.90;69.40;21.50;101755.00;;;;5068111;28;20206;-76
2023/10/09 05:38:23;;;;;;;8.82;5.90;;;19.90;69.50;21.50;101751.00;;;;5068769;28;20728;-76
2023/10/09 05:40:53;;;;;;;14.82;6.82;;;20.00;69.50;21.50;101752.00;;;;5068050;28;20244;-76
2023/10/09 05:46:09;;;;;;;7.85;5.32;;;20.00;69.40;21.60;101763.00;;;;5066221;28;20214;-76
2023/10/09 05:48:54;;;;;;;10.38;6.38;;;20.00;69.40;21.60;101766.00;;;;5070594;28;20191;-76
2023/10/09 05:58:19;;;;;;;10.23;6.03;;;20.10;69.50;21.60;101781.00;;;;5060171;28;20209;-75
2023/10/09 06:05:50;;;;;;;9.32;6.07;;;20.10;69.30;21.70;101774.00;;;;5069886;28;20284;-77
2023/10/09 06:08:24;;;;;;;9.43;5.57;;;20.10;69.30;21.70;101745.00;;;;5067393;28;20634;-77
2023/10/09 06:11:05;;;;;;;8.25;5.55;;;20.10;69.40;21.70;101732.00;;;;5076069;28;20196;-77
2023/10/09 06:13:41;;;;;;;9.02;5.13;;;20.10;69.40;21.70;101730.00;;;;5083690;28;21715;-77
2023/10/09 06:16:19;;;;;;;6.95;4.63;;;20.20;69.50;21.70;101723.00;;;;5073632;28;20209;-77
2023/10/09 06:19:07;;;;;;;6.13;4.72;;;20.20;69.40;21.70;101701.00;;;;5086450;28;20694;-76
2023/10/09 06:22:19;;;;;;;6.43;5.28;;;20.20;69.40;21.80;101712.00;;;;5074957;28;20734;-76
2023/10/09 06:24:41;;;;;;;6.95;5.20;;;20.20;69.30;21.80;101735.00;;;;5066871;28;20573;-77
2023/10/09 06:27:24;;;;;;;9.45;4.82;;;20.20;69.30;21.80;101730.00;;;;5068007;28;20245;-77
2023/10/09 06:30:14;;;;;;;10.90;5.13;;;20.30;70.00;21.80;101726.00;;;;5067463;28;20206;-76
2023/10/09 06:32:50;;;;;;;7.50;5.35;;;20.20;69.20;21.80;101727.00;;;;5066771;28;20206;-77
2023/10/09 06:35:21;;;;;;;8.20;4.30;;;20.30;69.30;21.80;101729.00;;;;5070871;28;20306;-77
2023/10/09 06:43:31;;;;;;;8.82;5.10;;;20.30;69.30;21.90;101717.00;;;;5071138;28;20345;-76
2023/10/09 06:46:37;;;;;;;8.52;4.95;;;20.30;69.30;21.90;101731.00;;;;5076790;28;20703;-77
2023/10/09 06:48:45;;;;;;;8.20;5.05;;;20.30;69.30;21.90;101761.00;;;;5071755;28;20197;-77
2023/10/09 06:51:40;;;;;;;7.32;5.25;;;20.30;69.40;21.90;101772.00;;;;5084592;28;20229;-77
2023/10/09 06:54:06;;;;;;;8.00;5.05;;;20.40;69.50;22.00;101766.00;;;;5075259;28;20248;-76
2023/10/09 07:00:10;;;;;;;7.85;4.80;;;20.40;69.60;22.00;101779.00;;;;5069710;28;20202;-76
2023/10/09 07:02:31;;;;;;;12.18;5.75;;;20.40;69.50;22.00;101777.00;;;;5074391;28;20315;-77
2023/10/09 07:05:10;;;;;;;15.80;5.20;;;20.50;69.50;22.00;101776.00;;;;5079459;28;20608;-77
2023/10/09 07:07:50;;;;;;;7.28;4.97;;;20.50;69.60;22.10;101781.00;;;;5072167;28;20203;-77
2023/10/09 07:10:39;;;;;;;7.30;4.97;;;20.40;69.60;22.10;101781.00;;;;5070732;28;20206;-77
2023/10/09 07:13:07;;;;;;;6.18;5.18;;;20.50;69.60;22.10;101777.00;;;;5070498;28;20208;-77
2023/10/09 07:18:23;;;;;;;6.07;4.53;;;20.60;69.70;22.20;101789.00;;;;5069615;28;20305;-77
2023/10/09 07:21:01;;;;;;;8.88;5.60;;;20.60;69.70;22.20;101787.00;;;;5070779;28;20207;-77
2023/10/09 07:23:33;;;;;;;9.13;5.40;;;20.60;69.70;22.30;101784.00;;;;5090045;28;20549;-77
2023/10/09 07:26:23;;;;;;;10.00;5.25;;;20.70;69.70;22.20;101773.00;;;;5084824;28;20229;-77
2023/10/09 07:29:01;;;;;;;8.40;4.65;;;20.70;69.80;22.30;101758.00;;;;5070134;28;20288;-77
2023/10/09 07:31:39;;;;;;;8.73;4.28;;;20.70;69.70;22.30;101747.00;;;;5070367;28;20206;-77
2023/10/09 07:34:30;;;;;;;6.60;4.72;;;20.70;69.70;22.40;101746.00;;;;5070599;28;20223;-77
2023/10/09 07:36:56;;;;;;;8.38;4.97;;;20.80;69.60;22.40;101721.00;;;;5070617;28;20680;-76
2023/10/09 07:39:24;;;;;;;7.78;4.90;;;20.80;69.60;22.40;101702.00;;;;5078392;28;20210;-77
2023/10/09 07:42:01;;;;;;;6.25;4.35;;;20.80;69.60;22.40;101688.00;;;;5072124;28;20191;-77
2023/10/09 07:44:37;;;;;;;8.32;5.18;;;20.80;69.60;22.50;101671.00;;;;5069228;28;20309;-77
2023/10/09 07:47:16;;;;;;;7.75;4.93;;;20.80;69.60;22.50;101664.00;;;;5069447;28;20198;-77
2023/10/09 07:49:48;;;;;;;8.43;4.70;;;20.90;69.70;22.50;101668.00;;;;5069439;28;20653;-76
2023/10/09 07:52:16;;;;;;;7.03;5.07;;;20.90;69.70;22.50;101685.00;;;;5072008;28;20199;-77
2023/10/09 07:54:49;;;;;;;8.90;4.93;;;21.00;69.80;22.60;101727.00;;;;5079478;28;20210;-77
2023/10/09 07:57:25;;;;;;;6.68;5.15;;;21.00;69.80;22.60;101757.00;;;;5087752;28;20255;-76
2023/10/09 08:00:00;;;;;;;8.05;5.05;;;21.00;69.90;22.70;101785.00;;;;5072115;28;20292;-77
2023/10/09 08:02:32;;;;;;;8.95;4.72;;;21.10;70.00;22.70;101784.00;;;;5070533;28;20317;-77
2023/10/09 08:05:18;;;;;;;9.52;4.53;;;21.10;70.10;22.80;101766.00;;;;5085811;28;20223;-77
2023/10/09 08:07:57;;;;;;;8.35;4.78;;;21.20;70.10;22.90;101765.00;;;;5067282;28;20205;-77
2023/10/09 08:16:01;;;;;;;7.25;4.45;;;21.30;69.90;22.90;101778.00;;;;5066779;28;20805;-77
2023/10/09 08:18:31;;;;;;;6.63;4.22;;;21.40;69.80;23.00;101781.00;;;;5069790;28;20199;-77
2023/10/09 08:23:49;;;;;;;7.00;4.82;;;21.50;69.70;23.10;101772.00;;;;5069185;28;20285;-77
2023/10/09 08:26:28;;;;;;;8.52;5.43;;;21.50;69.60;23.10;101787.00;;;;5069545;28;20237;-77
2023/10/09 08:29:15;;;;;;;9.82;5.32;;;21.50;69.60;23.20;101787.00;;;;5068010;28;20214;-77
2023/10/09 08:31:47;;;;;;;8.50;4.60;;;21.60;69.60;23.20;101794.00;;;;5067968;28;20195;-77
2023/10/09 08:34:24;;;;;;;6.88;4.53;;;21.60;69.60;23.30;101794.00;;;;5084158;28;20225;-77
2023/10/09 08:36:53;;;;;;;6.95;4.18;;;21.70;69.60;23.30;101805.00;;;;5068191;28;20198;-77
2023/10/09 08:39:27;;;;;;;9.63;5.22;;;21.70;69.50;23.40;101810.00;;;;5068165;28;20218;-77
2023/10/09 08:41:57;;;;;;;9.32;5.05;;;21.70;69.60;23.40;101820.00;;;;5067991;28;20574;-77
2023/10/09 08:44:27;;;;;;;6.18;5.07;;;21.80;69.60;23.50;101824.00;;;;5068593;28;20344;-77
2023/10/09 08:46:57;;;;;;;8.55;4.82;;;21.80;69.60;23.50;101819.00;;;;5067797;28;20664;-76
2023/10/09 08:49:24;;;;;;;7.13;4.22;;;21.90;69.60;23.60;101806.00;;;;5069046;28;20229;-76
2023/10/09 08:51:52;;;;;;;11.70;5.00;;;22.00;69.70;23.60;101808.00;;;;5068568;28;20282;-76
2023/10/09 08:54:19;;;;;;;8.13;5.10;;;22.00;69.60;23.70;101813.00;;;;5073627;28;20206;-76
2023/10/09 08:56:50;;;;;;;6.88;4.82;;;22.10;69.70;23.80;101823.00;;;;5067974;28;20191;-76
2023/10/09 08:59:19;;;;;;;11.07;5.30;;;22.10;69.70;23.80;101838.00;;;;5068316;28;20582;-76
2023/10/09 09:01:49;;;;;;;5.97;4.28;;;22.20;69.60;23.90;101840.00;;;;5071917;28;20714;-76
2023/10/09 09:04:40;;;;;;;6.80;4.03;;;22.30;69.50;23.80;101843.00;;;;5088888;28;20202;-76
2023/10/09 09:07:24;;;;;;;11.18;5.03;;;22.30;69.40;24.00;101836.00;;;;5070137;28;20195;-76
2023/10/09 09:10:00;;;;;;;6.45;4.38;;;22.40;69.30;24.00;101835.00;;;;5074570;28;20670;-76
2023/10/09 09:12:30;;;;;;;7.43;4.72;;;22.50;69.10;24.10;101841.00;;;;5081088;28;20226;-76
2023/10/09 09:14:58;;;;;;;11.50;5.20;;;22.50;69.00;24.20;101830.00;;;;5088237;28;20191;-76
2023/10/09 09:17:34;;;;;;;13.30;5.60;;;22.60;68.90;24.10;101828.00;;;;5075741;28;20256;-76
2023/10/09 09:20:23;;;;;;;9.50;4.75;;;22.60;68.70;24.10;101832.00;;;;5076611;28;20199;-76
2023/10/09 09:22:56;;;;;;;8.32;4.93;;;22.70;68.60;24.30;101833.00;;;;5068154;28;20195;-76
2023/10/09 09:25:24;;;;;;;6.90;4.40;;;22.80;68.70;24.40;101839.00;;;;5068475;28;20265;-76
2023/10/09 09:27:54;;;;;;;8.73;5.03;;;22.80;68.60;24.40;101846.00;;;;5068466;28;20195;-76
2023/10/09 09:30:31;;;;;;;6.03;4.35;;;22.90;68.50;24.40;101859.00;;;;5068818;28;20193;-76
2023/10/09 09:33:20;;;;;;;6.45;4.32;;;22.90;68.40;24.50;101848.00;;;;5083911;28;20252;-76
2023/10/09 09:36:00;;;;;;;6.13;4.10;;;23.00;68.40;24.50;101857.00;;;;5070352;28;20263;-76
2023/10/09 09:38:28;;;;;;;8.25;4.47;;;23.00;67.90;24.60;101852.00;;;;5076628;28;20201;-76
2023/10/09 09:41:02;;;;;;;7.38;4.25;;;23.10;68.80;24.60;101848.00;;;;5072571;28;20203;-76
2023/10/09 09:43:35;;;;;;;6.63;4.20;;;23.10;67.90;24.70;101857.00;;;;5068030;28;20199;-76
2023/10/09 09:46:07;;;;;;;6.93;4.55;;;23.20;67.80;24.70;101853.00;;;;5070722;28;20309;-76
2023/10/09 09:48:44;;;;;;;7.47;4.15;;;23.20;67.50;24.70;101854.00;;;;5076326;28;20665;-76
2023/10/09 09:51:15;;;;;;;7.60;4.20;;;23.30;67.60;24.80;101846.00;;;;5068951;28;20629;-76
2023/10/09 09:53:42;;;;;;;6.78;3.95;;;23.30;67.40;24.80;101845.00;;;;5066025;28;20202;-76
2023/10/09 09:56:17;;;;;;;7.50;4.07;;;23.40;67.30;24.80;101860.00;;;;5087973;28;20566;-76
2023/10/09 09:58:47;;;;;;;7.97;3.75;;;23.40;67.20;24.90;101855.00;;;;5085176;28;20194;-76
2023/10/09 10:01:24;;;;;;;8.60;4.30;;;23.40;67.10;24.90;101845.00;;;;5067714;28;20238;-76
2023/10/09 10:03:59;;;;;;;7.07;4.45;;;23.50;66.90;24.90;101848.00;;;;5065910;28;20660;-76
2023/10/09 10:06:33;;;;;;;7.57;4.03;;;23.50;66.80;24.90;101845.00;;;;5067198;28;20221;-76
2023/10/09 10:09:02;;;;;;;9.93;4.13;;;23.50;66.80;25.00;101850.00;;;;5074730;28;20202;-76
2023/10/09 10:11:51;;;;;;;7.95;4.65;;;23.60;66.90;24.90;101844.00;;;;5072328;28;20195;-76
2023/10/09 10:14:28;;;;;;;8.98;3.53;;;23.60;66.40;25.10;101847.00;;;;5091973;28;20274;-76
2023/10/09 10:17:16;;;;;;;6.15;3.92;;;23.60;66.70;25.10;101850.00;;;;5073138;28;20223;-76
2023/10/09 10:20:26;;;;;;;10.32;4.50;;;23.70;66.50;25.00;101845.00;;;;5071275;28;20203;-76
2023/10/09 10:23:18;;;;;;;5.10;3.33;;;23.70;66.20;25.00;101853.00;;;;5071294;28;20210;-76
2023/10/09 10:25:49;;;;;;;6.70;3.38;;;23.80;66.20;25.20;101849.00;;;;5070780;28;20258;-76
2023/10/09 10:28:35;;;;;;;6.40;3.55;;;23.80;66.60;25.30;101852.00;;;;5071268;28;20198;-76
2023/10/09 10:31:06;;;;;;;8.82;3.45;;;23.80;66.40;25.40;101851.00;;;;5076943;28;20199;-76
2023/10/09 10:34:10;;;;;;;6.88;4.00;;;23.90;66.60;25.30;101863.00;;;;5071032;28;20215;-76
2023/10/09 10:36:42;;;;;;;7.25;3.88;;;24.00;66.30;25.50;101859.00;;;;5081788;28;20546;-76
2023/10/09 10:39:11;;;;;;;8.25;4.25;;;24.00;66.50;25.50;101871.00;;;;5070535;28;20264;-76
2023/10/09 10:41:50;;;;;;;7.85;3.85;;;24.10;66.30;25.60;101863.00;;;;5078581;28;20187;-76
2023/10/09 10:44:36;;;;;;;8.77;3.65;;;24.10;66.20;25.60;101863.00;;;;5070956;28;20778;-76
2023/10/09 10:47:04;;;;;;;6.47;3.17;;;24.20;65.80;25.60;101870.00;;;;5073159;28;20226;-75
2023/10/09 10:49:38;;;;;;;10.68;4.00;;;24.20;65.60;25.70;101865.00;;;;5070720;28;20617;-76
2023/10/09 10:52:17;;;;;;;5.88;3.15;;;24.30;65.50;25.70;101860.00;;;;5071472;28;20202;-76
2023/10/09 10:55:05;;;;;;;12.85;3.63;;;24.30;65.30;25.70;101863.00;;;;5078710;28;20277;-76
2023/10/09 10:58:00;;;;;;;6.18;3.33;;;24.40;65.10;25.70;101870.00;;;;5090176;28;20210;-76
2023/10/09 11:03:23;;;;;;;5.72;3.15;;;24.40;64.70;25.80;101870.00;;;;5072013;28;20337;-76
2023/10/09 11:05:55;;;;;;;7.10;3.75;;;24.40;64.40;25.90;101864.00;;;;5086011;28;20628;-76
2023/10/09 11:08:32;;;;;;;8.18;3.58;;;24.50;64.60;25.90;101870.00;;;;5091013;28;20225;-76
2023/10/09 11:11:16;;;;;;;5.68;3.25;;;24.50;64.50;25.80;101879.00;;;;5080522;28;20198;-76
2023/10/09 11:13:57;;;;;;;8.07;3.28;;;24.50;63.90;26.00;101860.00;;;;5070327;28;20575;-76
2023/10/09 11:16:41;;;;;;;8.95;3.65;;;24.60;64.40;26.00;101862.00;;;;5071910;28;20289;-76
2023/10/09 11:19:22;;;;;;;5.25;3.28;;;24.60;64.10;26.00;101855.00;;;;5071011;28;20238;-77
2023/10/09 11:21:58;;;;;;;6.85;3.00;;;24.60;63.90;26.00;101863.00;;;;5072478;28;20195;-76
2023/10/09 11:24:27;;;;;;;6.57;3.65;;;24.70;63.90;26.00;101865.00;;;;5071829;28;20207;-76
2023/10/09 11:26:56;;;;;;;7.13;3.55;;;24.70;63.70;26.10;101862.00;;;;5070855;28;20227;-76
2023/10/09 11:29:23;;;;;;;7.03;3.67;;;24.70;63.70;26.10;101869.00;;;;5070539;28;20203;-76
2023/10/09 11:32:02;;;;;;;6.07;3.45;;;24.70;63.60;26.00;101873.00;;;;5071636;28;20654;-76
2023/10/09 11:34:29;;;;;;;5.13;3.13;;;24.70;63.20;26.20;101875.00;;;;5073541;28;20226;-76
2023/10/09 11:36:59;;;;;;;6.07;3.50;;;24.80;63.70;26.20;101870.00;;;;5080161;28;20235;-76
2023/10/09 11:39:32;;;;;;;18.65;4.15;;;24.80;63.50;26.20;101865.00;;;;5077590;28;20207;-76
2023/10/09 11:42:06;;;;;;;6.43;3.53;;;24.80;63.40;26.20;101870.00;;;;5070333;28;20209;-76
2023/10/09 11:44:40;;;;;;;7.72;3.35;;;24.80;63.00;26.20;101870.00;;;;5069670;28;20202;-76
2023/10/09 11:47:32;;;;;;;6.88;3.58;;;24.80;62.80;26.30;101861.00;;;;5070107;28;20228;-77
2023/10/09 11:50:13;;;;;;;8.32;3.58;;;24.90;63.10;26.30;101858.00;;;;5070347;28;20214;-76
2023/10/09 11:53:17;;;;;;;4.68;2.83;;;24.90;63.10;26.20;101857.00;;;;5070249;28;20672;-76
2023/10/09 11:55:48;;;;;;;4.55;2.97;;;24.90;62.40;26.40;101864.00;;;;5069059;28;20280;-77
2023/10/09 11:58:22;;;;;;;6.35;3.65;;;25.00;63.10;26.40;101858.00;;;;5070218;28;20199;-76
2023/10/09 12:00:56;;;;;;;5.57;3.38;;;25.00;62.90;26.40;101864.00;;;;5068656;28;20194;-76
2023/10/09 12:03:28;;;;;;;5.78;3.60;;;25.00;62.70;26.50;101857.00;;;;5069426;28;20643;-76
2023/10/09 12:05:57;;;;;;;5.45;3.40;;;25.00;62.70;26.50;101852.00;;;;5074250;28;20232;-76
2023/10/09 12:08:27;;;;;;;4.32;3.00;;;25.10;62.70;26.50;101855.00;;;;5074224;28;20194;-76
2023/10/09 12:10:58;;;;;;;9.13;3.50;;;25.10;62.50;26.50;101858.00;;;;5079976;28;20225;-76